KAWM/AWM METAR and TAF weather

Enter ICAO airport designator
Station Type Date Time Source
KAWM METAR 2020/07/09 06:53 UTC NOAA

KAWM 090653Z AUTO 00000KT 10SM CLR 24/23 A2987 RMK AO2 SLP111 T02440233


Station Type Date Time Source
KAWM Decoded METAR 2020/07/09 06:53 UTC NOAA

WEST MEMPHIS MUNICIPAL AIRPORT, AR, United States (KAWM) 35-08N 090-14W
Jul 09, 2020 - 02:53 AM EDT / 2020.07.09 0653 UTC
Wind: Calm:0
Visibility: 10 mile(s):0
Sky conditions: clear
Temperature: 75.9 F (24.4 C)
Dew Point: 73.9 F (23.3 C)
Relative Humidity: 93%
Pressure (altimeter): 29.87 in. Hg (1011 hPa)
ob: KAWM 090653Z AUTO 00000KT 10SM CLR 24/23 A2987 RMK AO2 SLP111 T02440233
cycle: 7

Station Type Date Time Source
KAWM TAF UTC NOAA

Error!

Example: see airport list